createdAt,value
2022-08-04T00:01:52.448Z,100288.78
2022-08-04T00:04:34.277Z,100292.91
2022-08-04T00:07:09.287Z,100289.88
2022-08-04T00:09:40.530Z,100292.31
2022-08-04T00:12:08.987Z,100301.81
2022-08-04T00:14:38.609Z,100305.91
2022-08-04T00:17:07.924Z,100310.00
2022-08-04T00:19:41.911Z,100308.69
2022-08-04T00:22:12.794Z,100313.81
2022-08-04T00:24:41.422Z,100316.22
2022-08-04T00:27:09.967Z,100314.88
2022-08-04T00:29:39.493Z,100308.81
2022-08-04T00:32:08.893Z,100307.50
2022-08-04T00:34:37.729Z,100313.28
2022-08-04T00:37:06.919Z,100309.88
2022-08-04T00:39:36.904Z,100309.41
2022-08-04T00:42:15.337Z,100317.22
2022-08-04T00:44:49.813Z,100310.47
2022-08-04T00:47:30.246Z,100310.00
2022-08-04T00:50:07.619Z,100314.09
2022-08-04T00:52:46.152Z,100315.66
2022-08-04T00:55:24.250Z,100319.53
2022-08-04T00:57:57.306Z,100311.13
2022-08-04T01:00:26.111Z,100313.34
2022-08-04T01:03:04.026Z,100312.00
2022-08-04T01:05:37.834Z,100309.81
2022-08-04T01:08:24.282Z,100318.47
2022-08-04T01:11:00.412Z,100309.22
2022-08-04T01:13:37.833Z,100314.97
2022-08-04T01:16:07.714Z,100313.63
2022-08-04T01:18:42.466Z,100304.00
2022-08-04T01:21:24.319Z,100308.91
2022-08-04T01:24:13.361Z,100298.63
2022-08-04T01:26:57.457Z,100299.81
2022-08-04T01:29:44.070Z,100305.56
2022-08-04T01:32:21.067Z,100315.03
2022-08-04T01:34:57.723Z,100319.06
2022-08-04T01:37:32.473Z,100319.25
2022-08-04T01:40:04.199Z,100317.06
2022-08-04T01:42:33.748Z,100315.72
2022-08-04T01:45:04.785Z,100322.50
2022-08-04T01:47:35.598Z,100327.25
2022-08-04T01:50:06.402Z,100325.91
2022-08-04T01:52:35.938Z,100330.13
2022-08-04T01:55:05.672Z,100324.38
2022-08-04T01:57:37.883Z,100320.34
2022-08-04T02:00:10.338Z,100327.13
2022-08-04T02:02:39.830Z,100329.66
2022-08-04T02:05:11.256Z,100323.41
2022-08-04T02:07:43.929Z,100330.34
2022-08-04T02:10:19.581Z,100331.50
2022-08-04T02:12:54.997Z,100331.69
2022-08-04T02:15:28.709Z,100331.03
2022-08-04T02:18:01.342Z,100334.03
2022-08-04T02:20:31.574Z,100329.66
2022-08-04T02:23:00.337Z,100328.97
2022-08-04T02:25:29.377Z,100329.97
2022-08-04T02:28:03.927Z,100340.13
2022-08-04T02:30:38.205Z,100328.66
2022-08-04T02:33:08.757Z,100338.09
2022-08-04T02:35:37.805Z,100338.44
2022-08-04T02:38:12.899Z,100341.13
2022-08-04T02:40:42.588Z,100346.84
2022-08-04T02:43:11.453Z,100345.50
2022-08-04T02:45:42.868Z,100341.06
2022-08-04T02:48:31.187Z,100342.09
2022-08-04T02:51:00.621Z,100350.16
2022-08-04T02:53:32.485Z,100346.06
2022-08-04T02:56:02.513Z,100354.44
2022-08-04T02:58:33.666Z,100348.63
2022-08-04T03:01:03.590Z,100356.00
2022-08-04T03:03:36.041Z,100357.44
2022-08-04T03:06:22.155Z,100366.03
2022-08-04T03:09:02.327Z,100368.03
2022-08-04T03:11:39.957Z,100363.97
2022-08-04T03:14:32.179Z,100361.06
2022-08-04T03:17:21.410Z,100359.84
2022-08-04T03:20:13.933Z,100359.84
2022-08-04T03:23:13.069Z,100368.56
2022-08-04T03:25:58.994Z,100377.97
2022-08-04T03:28:52.874Z,100374.56
2022-08-04T03:31:51.159Z,100369.50
2022-08-04T03:34:27.775Z,100383.97
2022-08-04T03:37:13.280Z,100381.75
2022-08-04T03:40:10.663Z,100388.84
2022-08-04T03:43:02.094Z,100400.69
2022-08-04T03:45:53.225Z,100397.81
2022-08-04T03:48:34.442Z,100410.97
2022-08-04T03:51:34.977Z,100407.97
2022-08-04T03:54:20.142Z,100409.34
2022-08-04T03:56:58.359Z,100412.59
2022-08-04T03:59:43.188Z,100413.25
2022-08-04T04:02:44.397Z,100408.75
2022-08-04T04:05:31.247Z,100412.25
2022-08-04T04:08:19.155Z,100413.66
2022-08-04T04:11:02.290Z,100421.88
2022-08-04T04:13:48.060Z,100420.03
2022-08-04T04:16:29.694Z,100426.25
2022-08-04T04:19:22.179Z,100431.13
2022-08-04T04:22:03.504Z,100436.84
2022-08-04T04:24:46.905Z,100436.59
2022-08-04T04:27:20.069Z,100432.69
2022-08-04T04:29:59.038Z,100434.88
2022-08-04T04:32:36.887Z,100440.84
2022-08-04T04:35:12.427Z,100439.78
2022-08-04T04:37:51.909Z,100441.09
2022-08-04T04:40:29.281Z,100455.88
2022-08-04T04:43:11.553Z,100454.50
2022-08-04T04:45:44.389Z,100454.94
2022-08-04T04:48:19.154Z,100461.09
2022-08-04T04:50:54.515Z,100465.78
2022-08-04T04:53:28.717Z,100467.53
2022-08-04T04:56:01.242Z,100468.84
2022-08-04T04:58:33.199Z,100472.31
2022-08-04T05:01:25.474Z,100470.91
2022-08-04T05:04:06.943Z,100471.22
2022-08-04T05:06:46.192Z,100469.28
2022-08-04T05:09:28.042Z,100473.81
2022-08-04T05:14:30.795Z,100483.56
2022-08-04T05:15:05.853Z,100487.66
2022-08-04T05:17:38.761Z,100485.34
2022-08-04T05:20:09.903Z,100498.06
2022-08-04T05:22:41.056Z,100504.19
2022-08-04T05:25:11.402Z,100508.50
2022-08-04T05:27:41.481Z,100508.81
2022-08-04T05:30:10.429Z,100513.00
2022-08-04T05:32:42.206Z,100514.25
2022-08-04T05:35:13.794Z,100514.22
2022-08-04T05:37:45.820Z,100511.56
2022-08-04T05:40:30.033Z,100501.13
2022-08-04T05:42:58.586Z,100512.78
2022-08-04T05:45:27.907Z,100517.66
2022-08-04T05:48:09.164Z,100518.16
2022-08-04T05:50:38.842Z,100517.38
2022-08-04T05:53:07.514Z,100531.66
2022-08-04T05:55:48.865Z,100528.31
2022-08-04T05:58:25.177Z,100533.63
2022-08-04T06:00:53.718Z,100547.63
2022-08-04T06:03:22.970Z,100555.06
2022-08-04T06:05:53.234Z,100551.78
2022-08-04T06:08:21.638Z,100553.78
2022-08-04T06:10:51.281Z,100556.19
2022-08-04T06:13:47.791Z,100556.31
2022-08-04T06:16:28.656Z,100547.47
2022-08-04T06:20:01.201Z,100550.19
2022-08-04T06:21:49.613Z,100550.72
2022-08-04T06:24:19.985Z,100545.94
2022-08-04T06:26:49.491Z,100557.81
2022-08-04T06:29:25.032Z,100544.22
2022-08-04T06:32:27.285Z,100541.59
2022-08-04T06:34:51.609Z,100547.72
2022-08-04T06:37:40.851Z,100546.66
2022-08-04T06:40:29.821Z,100547.19
2022-08-04T06:43:00.108Z,100551.19
2022-08-04T06:45:28.951Z,100551.84
2022-08-04T06:47:57.417Z,100562.56
2022-08-04T06:51:27.119Z,100553.75
2022-08-04T06:53:17.010Z,100555.06
2022-08-04T06:55:46.928Z,100541.47
2022-08-04T06:58:17.073Z,100555.97
2022-08-04T07:00:47.099Z,100547.28
2022-08-04T07:03:16.230Z,100551.22
2022-08-04T07:05:47.751Z,100553.56
2022-08-04T07:08:17.990Z,100556.31
2022-08-04T07:10:46.426Z,100563.78
2022-08-04T07:13:14.952Z,100569.22
2022-08-04T07:15:45.141Z,100561.06
2022-08-04T07:18:13.402Z,100573.69
2022-08-04T07:20:42.274Z,100574.06
2022-08-04T07:23:12.158Z,100566.41
2022-08-04T07:25:58.800Z,100570.59
2022-08-04T07:28:30.858Z,100565.59
2022-08-04T07:30:59.698Z,100574.63
2022-08-04T07:33:28.953Z,100573.69
2022-08-04T07:36:04.569Z,100578.28
2022-08-04T07:38:50.626Z,100572.66
2022-08-04T07:41:40.649Z,100577.34
2022-08-04T07:44:09.440Z,100577.44
2022-08-04T07:46:37.911Z,100574.66
2022-08-04T07:49:06.867Z,100569.41
2022-08-04T07:51:36.947Z,100578.25
2022-08-04T07:54:05.799Z,100582.94
2022-08-04T07:56:36.734Z,100577.97
2022-08-04T07:59:06.367Z,100586.25
2022-08-04T08:01:35.575Z,100579.13
2022-08-04T08:04:04.193Z,100586.84
2022-08-04T08:06:35.658Z,100585.78
2022-08-04T08:09:13.812Z,100589.66
2022-08-04T08:12:38.002Z,100581.28
2022-08-04T08:14:35.132Z,100582.97
2022-08-04T08:17:04.537Z,100581.78
2022-08-04T08:19:33.063Z,100578.78
2022-08-04T08:22:02.059Z,100579.66
2022-08-04T08:24:31.093Z,100593.50
2022-08-04T08:27:01.484Z,100599.13
2022-08-04T08:29:30.211Z,100605.16
2022-08-04T08:32:02.732Z,100593.03
2022-08-04T08:34:35.386Z,100598.81
2022-08-04T08:37:06.474Z,100598.25
2022-08-04T08:39:37.911Z,100595.19
2022-08-04T08:42:21.109Z,100606.03
2022-08-04T08:45:17.977Z,100597.97
2022-08-04T08:48:07.357Z,100601.63
2022-08-04T08:50:53.615Z,100603.63
2022-08-04T08:53:29.163Z,100596.69
2022-08-04T08:56:10.370Z,100602.59
2022-08-04T08:58:46.104Z,100605.69
2022-08-04T09:01:29.005Z,100604.66
2022-08-04T09:04:23.796Z,100609.53
2022-08-04T09:07:02.660Z,100614.09
2022-08-04T09:09:42.081Z,100610.16
2022-08-04T09:12:14.248Z,100611.22
2022-08-04T09:14:46.759Z,100615.44
2022-08-04T09:17:28.705Z,100612.94
2022-08-04T09:20:00.851Z,100614.50
2022-08-04T09:22:35.365Z,100617.78
2022-08-04T09:25:05.075Z,100612.84
2022-08-04T09:27:39.723Z,100609.31
2022-08-04T09:30:09.039Z,100616.94
2022-08-04T09:32:43.260Z,100619.66
2022-08-04T09:35:19.725Z,100617.41
2022-08-04T09:37:53.717Z,100620.19
2022-08-04T09:40:29.397Z,100616.25
2022-08-04T09:43:19.853Z,100625.44
2022-08-04T09:45:51.863Z,100627.97
2022-08-04T09:48:29.698Z,100623.53
2022-08-04T09:51:00.619Z,100617.09
2022-08-04T09:53:37.252Z,100618.91
2022-08-04T09:56:09.932Z,100613.75
2022-08-04T09:58:47.055Z,100622.44
2022-08-04T10:01:22.425Z,100627.13
2022-08-04T10:03:54.322Z,100619.66
2022-08-04T10:06:35.315Z,100614.03
2022-08-04T10:09:10.413Z,100613.66
2022-08-04T10:11:55.519Z,100626.66
2022-08-04T10:14:40.159Z,100627.34
2022-08-04T10:17:17.129Z,100646.56
2022-08-04T10:19:47.416Z,100644.22
2022-08-04T10:22:29.335Z,100636.25
2022-08-04T10:25:05.042Z,100647.44
2022-08-04T10:27:55.790Z,100646.03
2022-08-04T10:30:25.015Z,100643.44
2022-08-04T10:32:57.022Z,100652.88
2022-08-04T10:35:28.199Z,100652.75
2022-08-04T10:38:02.473Z,100646.06
2022-08-04T10:40:40.914Z,100641.03
2022-08-04T10:43:22.581Z,100643.50
2022-08-04T10:45:58.260Z,100648.50
2022-08-04T10:48:34.757Z,100655.75
2022-08-04T10:51:07.456Z,100666.69
2022-08-04T10:53:39.405Z,100669.34
2022-08-04T10:56:12.343Z,100672.38
2022-08-04T10:58:48.149Z,100662.13
2022-08-04T11:01:50.696Z,100667.41
2022-08-04T11:04:13.797Z,100676.03
2022-08-04T11:06:45.312Z,100672.91
2022-08-04T11:09:15.168Z,100666.38
2022-08-04T11:12:00.566Z,100665.00
2022-08-04T11:14:34.714Z,100666.84
2022-08-04T11:17:06.802Z,100656.84
2022-08-04T11:19:45.247Z,100658.47
2022-08-04T11:22:25.032Z,100657.66
2022-08-04T11:24:55.288Z,100666.66
2022-08-04T11:27:27.229Z,100657.84
2022-08-04T11:30:02.677Z,100671.97
2022-08-04T11:32:36.069Z,100678.13
2022-08-04T11:35:04.774Z,100676.75
2022-08-04T11:37:42.838Z,100677.13
2022-08-04T11:40:12.850Z,100687.94
2022-08-04T11:42:43.223Z,100684.34
2022-08-04T11:45:15.004Z,100688.81
2022-08-04T11:47:52.553Z,100685.38
2022-08-04T11:50:23.306Z,100679.09
2022-08-04T11:52:55.017Z,100679.00
2022-08-04T11:55:24.735Z,100681.22
2022-08-04T11:57:54.391Z,100691.13
2022-08-04T12:00:23.689Z,100679.72
2022-08-04T12:03:00.112Z,100685.13
2022-08-04T12:05:35.777Z,100691.22
2022-08-04T12:08:19.619Z,100696.25
2022-08-04T12:10:52.839Z,100705.31
2022-08-04T12:13:30.083Z,100696.41
2022-08-04T12:16:02.963Z,100706.00
2022-08-04T12:18:34.700Z,100697.06
2022-08-04T12:21:07.203Z,100700.78
2022-08-04T12:23:40.562Z,100699.75
2022-08-04T12:26:12.151Z,100688.31
2022-08-04T12:29:08.450Z,100685.63
2022-08-04T12:31:36.869Z,100690.00
2022-08-04T12:34:08.536Z,100704.28
2022-08-04T12:36:39.274Z,100702.34
2022-08-04T12:39:11.810Z,100706.88
2022-08-04T12:41:41.838Z,100712.38
2022-08-04T12:44:36.463Z,100710.31
2022-08-04T12:47:26.227Z,100715.13
2022-08-04T12:49:56.202Z,100718.63
2022-08-04T12:52:59.113Z,100717.38
2022-08-04T12:55:24.006Z,100713.25
2022-08-04T12:57:53.103Z,100708.31
2022-08-04T13:00:29.535Z,100710.25
2022-08-04T13:03:09.844Z,100710.38
2022-08-04T13:05:40.354Z,100712.34
2022-08-04T13:08:09.386Z,100709.88
2022-08-04T13:10:41.434Z,100713.44
2022-08-04T13:13:14.159Z,100710.75
2022-08-04T13:15:47.185Z,100711.38
2022-08-04T13:18:29.567Z,100693.44
2022-08-04T13:21:21.242Z,100719.34
2022-08-04T13:24:09.892Z,100715.28
2022-08-04T13:26:55.501Z,100714.09
2022-08-04T13:29:59.371Z,100717.81
2022-08-04T13:32:17.374Z,100722.88
2022-08-04T13:34:49.623Z,100719.91
2022-08-04T13:37:26.778Z,100727.22
2022-08-04T13:39:56.575Z,100725.28
2022-08-04T13:42:28.140Z,100722.81
2022-08-04T13:44:58.103Z,100723.16
2022-08-04T13:47:28.806Z,100709.91
2022-08-04T13:50:14.905Z,100715.94
2022-08-04T13:52:43.755Z,100717.59
2022-08-04T13:55:20.231Z,100720.47
2022-08-04T13:57:51.806Z,100725.66
2022-08-04T14:00:29.425Z,100721.25
2022-08-04T14:03:02.683Z,100728.28
2022-08-04T14:05:36.939Z,100724.72
2022-08-04T14:08:25.182Z,100720.78
2022-08-04T14:10:56.969Z,100734.31
2022-08-04T14:13:40.941Z,100722.25
2022-08-04T14:16:17.785Z,100723.56
2022-08-04T14:18:46.211Z,100720.41
2022-08-04T14:21:15.033Z,100727.38
2022-08-04T14:23:48.152Z,100724.16
2022-08-04T14:26:32.501Z,100711.91
2022-08-04T14:29:27.533Z,100711.78
2022-08-04T14:32:05.550Z,100733.81
2022-08-04T14:34:41.554Z,100730.84
2022-08-04T14:37:17.570Z,100733.50
2022-08-04T14:40:17.437Z,100729.41
2022-08-04T14:42:44.118Z,100730.94
2022-08-04T14:45:14.135Z,100729.50
2022-08-04T14:47:52.026Z,100739.47
2022-08-04T14:50:21.838Z,100742.28
2022-08-04T14:52:50.122Z,100750.06
2022-08-04T14:55:19.592Z,100750.88
2022-08-04T14:58:36.459Z,100742.44
2022-08-04T15:00:38.445Z,100752.63
2022-08-04T15:03:08.793Z,100750.22
2022-08-04T15:05:55.021Z,100745.63
2022-08-04T15:08:29.044Z,100743.78
2022-08-04T15:10:59.984Z,100747.13
2022-08-04T15:13:28.618Z,100751.59
2022-08-04T15:16:06.953Z,100751.50
2022-08-04T15:18:37.357Z,100748.19
2022-08-04T15:21:05.963Z,100752.41
2022-08-04T15:23:39.354Z,100751.91
2022-08-04T15:26:13.693Z,100758.28
2022-08-04T15:28:44.028Z,100754.19
2022-08-04T15:32:06.266Z,100755.28
2022-08-04T15:34:02.594Z,100760.56
2022-08-04T15:36:38.037Z,100757.66
2022-08-04T15:39:12.032Z,100751.69
2022-08-04T15:41:55.043Z,100748.81
2022-08-04T15:44:41.722Z,100746.41
2022-08-04T15:47:16.084Z,100743.31
2022-08-04T15:49:44.706Z,100752.22
2022-08-04T15:52:15.983Z,100758.41
2022-08-04T15:54:52.051Z,100758.88
2022-08-04T15:57:38.415Z,100755.72
2022-08-04T16:00:12.808Z,100752.22
2022-08-04T16:02:45.043Z,100762.78
2022-08-04T16:05:35.800Z,100759.44
2022-08-04T16:08:14.177Z,100757.75
2022-08-04T16:10:43.323Z,100760.66
2022-08-04T16:13:14.147Z,100762.78
2022-08-04T16:15:43.567Z,100773.31
2022-08-04T16:18:26.736Z,100765.03
2022-08-04T16:20:59.043Z,100762.13
2022-08-04T16:24:00.623Z,100764.47
2022-08-04T16:26:54.821Z,100767.06
2022-08-04T16:29:46.976Z,100758.16
2022-08-04T16:32:22.996Z,100755.47
2022-08-04T16:34:58.963Z,100756.88
2022-08-04T16:37:31.555Z,100770.44
2022-08-04T16:40:18.647Z,100765.88
2022-08-04T16:42:46.813Z,100770.16
2022-08-04T16:45:15.803Z,100763.44
2022-08-04T16:48:04.310Z,100770.91
2022-08-04T16:50:34.313Z,100773.13
2022-08-04T16:53:14.530Z,100768.16
2022-08-04T16:55:59.322Z,100769.97
2022-08-04T16:58:29.862Z,100759.91
2022-08-04T17:01:08.475Z,100768.22
2022-08-04T17:03:38.751Z,100765.25
2022-08-04T17:06:09.575Z,100773.25
2022-08-04T17:08:38.357Z,100781.91
2022-08-04T17:11:06.940Z,100781.84
2022-08-04T17:14:03.882Z,100780.84
2022-08-04T17:16:25.571Z,100785.06
2022-08-04T17:18:54.706Z,100785.56
2022-08-04T17:21:25.899Z,100787.69
2022-08-04T17:24:12.948Z,100782.53
2022-08-04T17:29:43.286Z,100781.84
2022-08-04T17:32:18.798Z,100777.81
2022-08-04T17:34:50.524Z,100784.66
2022-08-04T17:37:38.979Z,100792.84
2022-08-04T17:40:10.805Z,100790.44
2022-08-04T17:42:41.934Z,100792.31
2022-08-04T17:45:50.295Z,100795.41
2022-08-04T17:48:00.611Z,100801.41
2022-08-04T17:50:35.132Z,100799.78
2022-08-04T17:53:11.267Z,100804.94
2022-08-04T17:55:42.476Z,100798.56
2022-08-04T17:58:21.165Z,100791.44
2022-08-04T18:00:57.628Z,100799.81
2022-08-04T18:03:39.040Z,100788.41
2022-08-04T18:06:12.530Z,100786.31
2022-08-04T18:08:45.960Z,100790.72
2022-08-04T18:11:22.231Z,100791.34
2022-08-04T18:13:56.930Z,100786.53
2022-08-04T18:16:27.357Z,100800.69
2022-08-04T18:19:11.691Z,100796.53
2022-08-04T18:24:35.544Z,100794.13
2022-08-04T18:27:18.683Z,100800.06
2022-08-04T18:30:15.128Z,100800.34
2022-08-04T18:32:35.842Z,100810.25
2022-08-04T18:35:05.596Z,100817.47
2022-08-04T18:38:06.679Z,100816.84
2022-08-04T18:40:33.227Z,100818.94
2022-08-04T18:43:14.365Z,100821.22
2022-08-04T18:45:51.332Z,100826.50
2022-08-04T18:48:19.954Z,100840.16
2022-08-04T18:51:10.059Z,100842.69
2022-08-04T18:53:36.310Z,100845.84
2022-08-04T18:56:19.844Z,100843.94
2022-08-04T18:58:54.946Z,100851.94
2022-08-04T19:01:29.584Z,100859.72
2022-08-04T19:03:58.721Z,100860.78
2022-08-04T19:06:27.605Z,100864.75
2022-08-04T19:08:55.771Z,100869.41
2022-08-04T19:11:54.255Z,100869.94
2022-08-04T19:14:14.190Z,100876.28
2022-08-04T19:16:45.866Z,100875.34
2022-08-04T19:19:15.371Z,100887.94
2022-08-04T19:22:00.683Z,100895.84
2022-08-04T19:24:34.181Z,100891.16
2022-08-04T19:27:09.145Z,100891.97
2022-08-04T19:29:40.632Z,100892.34
2022-08-04T19:32:14.712Z,100886.81
2022-08-04T19:34:46.372Z,100906.47
2022-08-04T19:37:56.173Z,100906.41
2022-08-04T19:40:06.633Z,100907.69
2022-08-04T19:42:42.134Z,100903.06
2022-08-04T19:45:15.693Z,100903.00
2022-08-04T19:48:12.093Z,100917.66
2022-08-04T19:50:38.166Z,100917.59
2022-08-04T19:53:18.804Z,100925.91
2022-08-04T19:55:54.332Z,100941.72
2022-08-04T19:58:28.087Z,100937.69
2022-08-04T20:00:58.523Z,100946.94
2022-08-04T20:04:09.673Z,100955.81
2022-08-04T20:06:24.571Z,100965.59
2022-08-04T20:08:58.981Z,100956.75
2022-08-04T20:11:33.633Z,100962.09
2022-08-04T20:14:09.609Z,100962.78
2022-08-04T20:16:43.549Z,100964.88
2022-08-04T20:19:14.976Z,100967.63
2022-08-04T20:21:55.414Z,100975.13
2022-08-04T20:24:36.542Z,100980.47
2022-08-04T20:27:16.095Z,100984.78
2022-08-04T20:29:51.911Z,100993.78
2022-08-04T20:32:28.885Z,100988.72
2022-08-04T20:34:59.416Z,100991.41
2022-08-04T20:37:56.886Z,100993.19
2022-08-04T20:40:23.756Z,101002.81
2022-08-04T20:42:57.617Z,101002.88
2022-08-04T20:45:56.823Z,101004.44
2022-08-04T20:48:25.678Z,101011.13
2022-08-04T20:50:59.542Z,101014.25
2022-08-04T20:53:46.645Z,101015.69
2022-08-04T20:56:30.212Z,101018.09
2022-08-04T20:59:07.886Z,101018.81
2022-08-04T21:01:39.766Z,101026.34
2022-08-04T21:04:32.684Z,101027.72
2022-08-04T21:07:03.703Z,101028.94
2022-08-04T21:09:38.241Z,101033.91
2022-08-04T21:12:27.482Z,101036.31
2022-08-04T21:15:13.736Z,101029.53
2022-08-04T21:17:57.012Z,101038.22
2022-08-04T21:20:29.910Z,101038.94
2022-08-04T21:23:01.963Z,101049.28
2022-08-04T21:25:33.045Z,101040.81
2022-08-04T21:28:12.248Z,101046.09
2022-08-04T21:30:52.899Z,101043.03
2022-08-04T21:33:49.667Z,101052.06
2022-08-04T21:36:19.956Z,101041.88
2022-08-04T21:38:51.500Z,101047.34
2022-08-04T21:41:24.622Z,101053.47
2022-08-04T21:43:58.941Z,101059.78
2022-08-04T21:46:30.002Z,101048.91
2022-08-04T21:48:59.983Z,101062.31
2022-08-04T21:51:57.774Z,101057.09
2022-08-04T21:54:20.294Z,101058.94
2022-08-04T21:56:51.004Z,101061.66
2022-08-04T21:59:23.254Z,101061.00
2022-08-04T22:01:56.651Z,101054.53
2022-08-04T22:04:27.717Z,101068.94
2022-08-04T22:07:02.886Z,101063.66
2022-08-04T22:09:41.064Z,101066.69
2022-08-04T22:12:12.447Z,101060.88
2022-08-04T22:14:50.245Z,101059.97
2022-08-04T22:17:20.342Z,101064.31
2022-08-04T22:19:56.639Z,101069.69
2022-08-04T22:22:31.389Z,101068.38
2022-08-04T22:28:02.740Z,101073.25
2022-08-04T22:30:36.973Z,101069.41
2022-08-04T22:33:08.402Z,101071.38
2022-08-04T22:35:44.087Z,101077.88
2022-08-04T22:38:34.856Z,101074.03
2022-08-04T22:41:14.459Z,101078.47
2022-08-04T22:43:54.915Z,101078.09
2022-08-04T22:46:29.811Z,101075.00
2022-08-04T22:49:03.938Z,101073.63
2022-08-04T22:51:50.688Z,101079.63
2022-08-04T22:54:23.612Z,101077.06
2022-08-04T22:57:01.754Z,101076.53
2022-08-04T22:59:36.323Z,101073.44
2022-08-04T23:02:09.398Z,101068.34
2022-08-04T23:04:37.679Z,101070.34
2022-08-04T23:07:15.287Z,101076.19
2022-08-04T23:09:51.105Z,101076.66
2022-08-04T23:12:25.980Z,101073.53
2022-08-04T23:15:04.397Z,101082.09
2022-08-04T23:17:43.803Z,101071.06
2022-08-04T23:20:23.691Z,101070.09
2022-08-04T23:23:12.357Z,101072.16
2022-08-04T23:26:08.196Z,101071.78
2022-08-04T23:28:43.338Z,101076.75
2022-08-04T23:31:19.749Z,101074.34
2022-08-04T23:33:54.555Z,101076.63
2022-08-04T23:36:30.858Z,101079.47
2022-08-04T23:39:12.106Z,101085.88
2022-08-04T23:41:53.790Z,101090.00
2022-08-04T23:44:32.286Z,101082.50
2022-08-04T23:47:03.293Z,101079.13
2022-08-04T23:49:44.017Z,101082.38
2022-08-04T23:52:15.762Z,101079.97
2022-08-04T23:54:58.339Z,101078.28
2022-08-04T23:58:02.250Z,101084.69
